createdAt,value
2022-10-31T00:02:40.964Z,12.80
2022-10-31T00:07:43.417Z,12.70
2022-10-31T00:12:45.916Z,12.70
2022-10-31T00:17:48.433Z,13.30
2022-10-31T00:22:51.022Z,13.00
2022-10-31T00:27:53.962Z,13.30
2022-10-31T00:32:56.837Z,13.50
2022-10-31T00:37:59.659Z,13.40
2022-10-31T00:43:02.768Z,13.10
2022-10-31T00:48:06.174Z,13.40
2022-10-31T00:53:08.868Z,13.50
2022-10-31T00:58:11.426Z,13.30
2022-10-31T01:03:15.247Z,13.20
2022-10-31T01:08:17.780Z,13.00
2022-10-31T01:13:23.328Z,13.40
2022-10-31T01:18:26.310Z,13.40
2022-10-31T01:23:29.332Z,13.40
2022-10-31T01:28:31.849Z,13.60
2022-10-31T01:33:35.435Z,13.40
2022-10-31T01:38:38.081Z,13.20
2022-10-31T01:43:50.645Z,12.90
2022-10-31T01:48:55.019Z,12.80
2022-10-31T01:54:01.577Z,13.00
2022-10-31T01:59:08.972Z,12.90
2022-10-31T02:04:11.769Z,12.10
2022-10-31T02:09:16.036Z,12.40
2022-10-31T02:14:18.962Z,12.50
2022-10-31T02:19:47.065Z,12.30
2022-10-31T02:25:04.450Z,12.50
2022-10-31T02:30:27.701Z,13.00
2022-10-31T02:35:49.059Z,12.60
2022-10-31T02:41:13.346Z,12.70
2022-10-31T02:46:33.640Z,12.00
2022-10-31T02:51:37.341Z,13.10
2022-10-31T02:56:40.207Z,12.90
2022-10-31T03:02:21.249Z,12.30
2022-10-31T03:07:32.238Z,12.50
2022-10-31T03:12:47.694Z,12.50
2022-10-31T03:18:05.463Z,12.40
2022-10-31T03:23:12.981Z,12.50
2022-10-31T03:33:31.404Z,12.20
2022-10-31T03:38:36.522Z,12.50
2022-10-31T03:43:45.777Z,12.30
2022-10-31T03:48:48.828Z,12.20
2022-10-31T03:53:51.381Z,13.20
2022-10-31T03:59:02.086Z,13.80
2022-10-31T04:04:06.561Z,13.90
2022-10-31T04:09:10.999Z,13.40
2022-10-31T04:14:13.739Z,13.50
2022-10-31T04:19:16.459Z,13.40
2022-10-31T04:24:19.101Z,13.30
2022-10-31T04:29:21.599Z,12.70
2022-10-31T04:34:24.128Z,12.70
2022-10-31T04:39:26.946Z,12.10
2022-10-31T04:44:55.538Z,11.00
2022-10-31T04:49:58.916Z,11.80
2022-10-31T04:55:01.373Z,12.10
2022-10-31T05:00:23.392Z,11.90
2022-10-31T05:05:29.767Z,12.00
2022-10-31T05:10:32.907Z,11.80
2022-10-31T05:15:36.898Z,12.70
2022-10-31T05:21:02.426Z,12.60
2022-10-31T05:26:11.104Z,12.70
2022-10-31T05:31:13.595Z,12.50
2022-10-31T05:36:18.007Z,12.20
2022-10-31T05:41:39.176Z,12.10
2022-10-31T05:46:48.347Z,11.40
2022-10-31T05:52:24.310Z,11.20
2022-10-31T05:57:35.062Z,12.20
2022-10-31T06:02:39.038Z,12.50
2022-10-31T06:07:57.386Z,12.40
2022-10-31T06:13:00.221Z,12.10
2022-10-31T06:18:11.701Z,11.90
2022-10-31T06:23:23.360Z,12.70
2022-10-31T06:28:31.482Z,12.80
2022-10-31T06:33:46.980Z,13.80
2022-10-31T06:38:49.402Z,13.60
2022-10-31T06:43:55.370Z,13.40
2022-10-31T06:49:16.467Z,12.90
2022-10-31T06:54:26.356Z,12.60
2022-10-31T06:59:30.433Z,12.80
2022-10-31T07:04:51.945Z,12.50
2022-10-31T07:09:54.386Z,12.90
2022-10-31T07:15:11.961Z,13.10
2022-10-31T07:20:14.626Z,13.30
2022-10-31T07:25:17.940Z,13.70
2022-10-31T07:30:39.435Z,14.60
2022-10-31T07:35:42.137Z,14.40
2022-10-31T07:40:52.919Z,14.30
2022-10-31T07:45:55.784Z,15.00
2022-10-31T07:51:16.816Z,14.40
2022-10-31T07:56:50.354Z,14.60
2022-10-31T08:01:52.896Z,14.20
2022-10-31T08:07:21.083Z,10.70
2022-10-31T08:12:31.048Z,10.90
2022-10-31T08:17:37.100Z,10.20
2022-10-31T08:22:43.756Z,13.80
2022-10-31T08:27:52.222Z,14.60
2022-10-31T08:33:01.565Z,13.60
2022-10-31T08:38:22.722Z,14.50
2022-10-31T08:43:26.194Z,15.10
2022-10-31T08:48:30.444Z,15.30
2022-10-31T08:53:33.244Z,15.50
2022-10-31T08:58:59.004Z,15.90
2022-10-31T09:04:13.860Z,16.60
2022-10-31T09:09:16.720Z,17.20
2022-10-31T09:14:19.151Z,17.90
2022-10-31T09:19:50.505Z,18.10
2022-10-31T09:24:53.032Z,18.30
2022-10-31T09:29:55.998Z,18.20
2022-10-31T09:34:58.671Z,18.00
2022-10-31T09:40:01.167Z,17.90
2022-10-31T09:45:23.040Z,18.20
2022-10-31T09:50:51.239Z,17.90
2022-10-31T09:56:20.169Z,18.20
2022-10-31T10:01:50.728Z,17.90
2022-10-31T10:06:53.550Z,17.90
2022-10-31T10:12:54.547Z,17.50
2022-10-31T10:18:20.653Z,17.90
2022-10-31T10:23:30.903Z,17.60
2022-10-31T10:28:39.704Z,15.10
2022-10-31T10:34:04.560Z,14.50
2022-10-31T10:39:24.475Z,16.60
2022-10-31T10:44:45.523Z,17.30
2022-10-31T10:49:54.829Z,17.60
2022-10-31T10:55:22.222Z,17.90
2022-10-31T11:00:30.588Z,18.10
2022-10-31T11:05:46.688Z,17.90
2022-10-31T11:11:04.902Z,17.60
2022-10-31T11:16:15.757Z,17.10
2022-10-31T11:21:36.585Z,17.70
2022-10-31T11:26:40.516Z,17.50
2022-10-31T11:31:44.176Z,17.10
2022-10-31T11:36:47.150Z,17.20
2022-10-31T11:41:51.389Z,17.20
2022-10-31T11:46:56.961Z,17.40
2022-10-31T11:52:09.170Z,17.30
2022-10-31T11:57:43.923Z,17.30
2022-10-31T12:02:46.525Z,17.60
2022-10-31T12:07:50.257Z,17.30
2022-10-31T12:13:33.471Z,17.70
2022-10-31T12:18:45.077Z,17.80
2022-10-31T12:24:07.332Z,18.00
2022-10-31T12:29:31.546Z,18.00
2022-10-31T12:34:52.598Z,18.10
2022-10-31T12:40:07.714Z,18.10
2022-10-31T12:45:19.941Z,18.10
2022-10-31T12:50:40.933Z,18.10
2022-10-31T12:55:46.266Z,18.30
2022-10-31T13:01:09.657Z,18.00
2022-10-31T13:06:19.725Z,18.10
2022-10-31T13:11:34.352Z,18.00
2022-10-31T13:16:42.512Z,18.10
2022-10-31T13:22:03.985Z,17.90
2022-10-31T13:27:19.303Z,18.20
2022-10-31T13:32:22.148Z,18.30
2022-10-31T13:37:53.659Z,18.30
2022-10-31T13:43:14.552Z,18.20
2022-10-31T13:48:17.121Z,17.70
2022-10-31T13:53:19.636Z,17.70
2022-10-31T13:58:28.651Z,17.60
2022-10-31T14:03:57.754Z,17.30
2022-10-31T14:08:56.682Z,17.30
2022-10-31T14:14:01.618Z,17.10
2022-10-31T14:19:08.570Z,17.00
2022-10-31T14:24:26.409Z,17.40
2022-10-31T14:29:34.693Z,17.60
2022-10-31T14:34:42.201Z,17.10
2022-10-31T14:40:06.398Z,18.00
2022-10-31T14:45:30.595Z,18.50
2022-10-31T14:50:49.212Z,18.80
2022-10-31T14:55:54.537Z,18.80
2022-10-31T15:00:58.669Z,18.90
2022-10-31T15:06:06.563Z,18.80
2022-10-31T15:11:15.430Z,18.90
2022-10-31T15:21:48.410Z,18.50
2022-10-31T15:26:53.541Z,18.70
2022-10-31T15:31:58.106Z,18.20
2022-10-31T15:37:00.613Z,18.30
2022-10-31T15:42:03.459Z,18.50
2022-10-31T15:47:18.883Z,18.20
2022-10-31T15:52:34.075Z,18.70
2022-10-31T15:57:43.189Z,18.50
2022-10-31T16:02:45.816Z,17.70
2022-10-31T16:07:52.863Z,17.80
2022-10-31T16:12:55.441Z,18.10
2022-10-31T16:18:01.412Z,18.00
2022-10-31T16:23:04.344Z,17.90
2022-10-31T16:28:27.120Z,17.60
2022-10-31T16:33:38.618Z,17.80
2022-10-31T16:38:41.789Z,17.90
2022-10-31T16:43:46.647Z,17.90
2022-10-31T16:48:53.499Z,17.70
2022-10-31T16:53:55.914Z,18.20
2022-10-31T16:59:03.153Z,17.80
2022-10-31T17:04:05.573Z,18.00
2022-10-31T17:09:08.106Z,18.30
2022-10-31T17:14:11.207Z,18.30
2022-10-31T17:19:14.354Z,18.20
2022-10-31T17:24:16.781Z,18.60
2022-10-31T17:29:19.256Z,18.80
2022-10-31T17:34:21.847Z,18.80
2022-10-31T17:39:24.287Z,18.50
2022-10-31T17:44:26.851Z,18.40
2022-10-31T17:49:29.415Z,18.00
2022-10-31T17:54:31.874Z,18.10
2022-10-31T17:59:34.410Z,15.80
2022-10-31T18:04:37.549Z,17.30
2022-10-31T18:09:39.902Z,18.10
2022-10-31T18:14:48.115Z,18.30
2022-10-31T18:19:50.934Z,18.40
2022-10-31T18:24:53.878Z,18.20
2022-10-31T18:29:57.892Z,18.40
2022-10-31T18:35:00.322Z,18.60
2022-10-31T18:40:03.718Z,19.00
2022-10-31T18:45:12.084Z,18.90
2022-10-31T18:50:29.255Z,18.50
2022-10-31T18:55:31.609Z,18.80
2022-10-31T19:00:34.031Z,18.90
2022-10-31T19:05:36.487Z,18.90
2022-10-31T19:10:40.139Z,18.70
2022-10-31T19:15:42.835Z,19.00
2022-10-31T19:20:45.221Z,19.00
2022-10-31T19:25:47.713Z,18.70
2022-10-31T19:30:54.654Z,18.50
2022-10-31T19:36:01.165Z,18.80
2022-10-31T19:41:10.471Z,18.50
2022-10-31T19:46:22.003Z,18.30
2022-10-31T19:51:30.443Z,17.40
2022-10-31T19:56:32.833Z,17.80
2022-10-31T20:01:35.481Z,17.60
2022-10-31T20:06:40.764Z,18.00
2022-10-31T20:11:45.882Z,18.00
2022-10-31T20:16:48.306Z,17.40
2022-10-31T20:21:50.771Z,18.00
2022-10-31T20:26:53.194Z,18.10
2022-10-31T20:31:57.167Z,18.30
2022-10-31T20:36:59.623Z,17.90
2022-10-31T20:47:06.702Z,12.30
2022-10-31T20:52:09.246Z,11.70
2022-10-31T20:57:11.600Z,11.50
2022-10-31T21:02:14.189Z,11.40
2022-10-31T21:07:17.002Z,11.20
2022-10-31T21:12:19.482Z,11.20
2022-10-31T21:17:22.057Z,11.20
2022-10-31T21:22:24.447Z,11.20
2022-10-31T21:27:27.110Z,14.10
2022-10-31T21:32:29.658Z,14.80
2022-10-31T21:37:32.137Z,14.80
2022-10-31T21:42:34.603Z,15.80
2022-10-31T21:47:36.995Z,16.70
2022-10-31T21:52:39.442Z,16.00
2022-10-31T21:57:42.038Z,16.00
2022-10-31T22:02:44.429Z,16.10
2022-10-31T22:07:46.816Z,16.00
2022-10-31T22:12:49.372Z,16.10
2022-10-31T22:17:51.853Z,16.40
2022-10-31T22:22:54.280Z,16.30
2022-10-31T22:27:56.779Z,15.90
2022-10-31T22:32:59.508Z,15.50
2022-10-31T22:38:02.171Z,15.50
2022-10-31T22:43:04.871Z,15.40
2022-10-31T22:48:07.425Z,15.40
2022-10-31T22:53:11.673Z,16.00
2022-10-31T22:58:14.210Z,16.40
2022-10-31T23:03:19.127Z,16.10
2022-10-31T23:08:21.508Z,15.90
2022-10-31T23:13:42.981Z,15.60
2022-10-31T23:18:50.108Z,15.70
2022-10-31T23:23:52.957Z,16.70
2022-10-31T23:28:55.472Z,16.90
2022-10-31T23:33:57.832Z,16.60
2022-10-31T23:39:00.222Z,17.00
2022-10-31T23:44:02.913Z,16.90
2022-10-31T23:49:05.356Z,14.00
2022-10-31T23:54:08.341Z,12.90
2022-10-31T23:59:11.148Z,15.30
